createdAt,value
2018-02-14T00:01:57.268Z,93.50
2018-02-14T00:04:24.726Z,93.50
2018-02-14T00:06:52.182Z,93.50
2018-02-14T00:09:19.647Z,93.50
2018-02-14T00:11:47.090Z,93.50
2018-02-14T00:14:14.561Z,93.50
2018-02-14T00:16:42.004Z,93.50
2018-02-14T00:19:09.469Z,93.40
2018-02-14T00:21:36.906Z,93.50
2018-02-14T00:24:05.135Z,93.50
2018-02-14T00:26:32.609Z,93.50
2018-02-14T00:29:00.071Z,93.40
2018-02-14T00:31:27.519Z,93.50
2018-02-14T00:33:54.991Z,93.70
2018-02-14T00:36:22.437Z,93.40
2018-02-14T00:38:49.899Z,93.40
2018-02-14T00:41:17.363Z,93.40
2018-02-14T00:43:44.814Z,93.40
2018-02-14T00:46:12.278Z,93.40
2018-02-14T00:48:39.746Z,93.60
2018-02-14T00:51:07.217Z,93.80
2018-02-14T00:53:35.423Z,93.70
2018-02-14T00:56:02.890Z,93.70
2018-02-14T00:58:30.339Z,93.60
2018-02-14T01:00:57.808Z,93.60
2018-02-14T01:03:25.271Z,93.60
2018-02-14T01:05:52.714Z,93.90
2018-02-14T01:08:20.187Z,93.60
2018-02-14T01:10:47.631Z,93.60
2018-02-14T01:13:15.103Z,93.60
2018-02-14T01:15:42.554Z,93.60
2018-02-14T01:18:09.995Z,93.60
2018-02-14T01:20:43.136Z,93.60
2018-02-14T01:23:10.578Z,93.50
2018-02-14T01:25:38.048Z,93.50
2018-02-14T01:28:05.512Z,93.50
2018-02-14T01:30:32.974Z,93.50
2018-02-14T01:33:12.736Z,93.50
2018-02-14T01:35:40.953Z,93.50
2018-02-14T01:38:08.410Z,93.50
2018-02-14T01:40:35.861Z,93.50
2018-02-14T01:43:03.328Z,93.50
2018-02-14T01:45:30.786Z,93.50
2018-02-14T01:47:58.251Z,93.50
2018-02-14T01:50:37.583Z,93.50
2018-02-14T01:53:05.047Z,93.50
2018-02-14T01:55:32.484Z,93.50
2018-02-14T01:58:00.763Z,93.50
2018-02-14T02:00:28.249Z,93.50
2018-02-14T02:02:55.747Z,93.40
2018-02-14T02:05:23.963Z,93.40
2018-02-14T02:07:51.432Z,93.40
2018-02-14T02:10:18.881Z,93.40
2018-02-14T02:12:46.336Z,93.40
2018-02-14T02:15:13.801Z,93.40
2018-02-14T02:17:41.263Z,93.40
2018-02-14T02:20:08.731Z,93.40
2018-02-14T02:22:36.199Z,93.40
2018-02-14T02:25:03.639Z,93.40
2018-02-14T02:27:31.089Z,93.30
2018-02-14T02:29:58.547Z,93.30
2018-02-14T02:32:26.005Z,93.30
2018-02-14T02:34:53.463Z,93.30
2018-02-14T02:37:20.903Z,93.20
2018-02-14T02:40:00.285Z,93.20
2018-02-14T02:42:27.718Z,93.30
2018-02-14T02:44:55.186Z,93.30
2018-02-14T02:47:22.627Z,93.30
2018-02-14T02:49:50.111Z,93.30
2018-02-14T02:52:17.578Z,93.30
2018-02-14T02:54:45.026Z,93.20
2018-02-14T02:57:12.475Z,93.20
2018-02-14T02:59:39.941Z,93.20
2018-02-14T03:02:07.408Z,93.20
2018-02-14T03:04:34.886Z,93.20
2018-02-14T03:07:02.383Z,93.20
2018-02-14T03:09:29.849Z,93.20
2018-02-14T03:11:57.311Z,93.20
2018-02-14T03:14:24.794Z,93.50
2018-02-14T03:16:52.258Z,93.20
2018-02-14T03:19:19.762Z,93.20
2018-02-14T03:21:47.982Z,93.20
2018-02-14T03:24:15.454Z,93.20
2018-02-14T03:26:42.934Z,93.20
2018-02-14T03:29:10.400Z,93.20
2018-02-14T03:31:38.663Z,93.00
2018-02-14T03:34:06.128Z,93.50
2018-02-14T03:36:33.582Z,93.20
2018-02-14T03:39:01.070Z,93.20
2018-02-14T03:41:28.529Z,93.20
2018-02-14T03:43:56.043Z,93.20
2018-02-14T03:46:23.502Z,93.20
2018-02-14T03:48:51.762Z,93.20
2018-02-14T03:51:19.223Z,93.20
2018-02-14T03:53:46.716Z,93.10
2018-02-14T03:56:14.179Z,93.20
2018-02-14T03:58:41.677Z,93.20
2018-02-14T04:01:09.182Z,93.10
2018-02-14T04:03:36.647Z,93.10
2018-02-14T04:06:04.125Z,93.10
2018-02-14T04:08:32.358Z,93.10
2018-02-14T04:10:59.858Z,93.10
2018-02-14T04:13:28.106Z,93.10
2018-02-14T04:15:55.593Z,93.10
2018-02-14T04:18:23.066Z,93.10
2018-02-14T04:20:50.537Z,93.10
2018-02-14T04:23:18.018Z,93.10
2018-02-14T04:25:45.519Z,93.10
2018-02-14T04:28:12.971Z,93.10
2018-02-14T04:30:40.458Z,93.10
2018-02-14T04:33:07.923Z,93.10
2018-02-14T04:35:35.401Z,93.10
2018-02-14T04:38:02.866Z,93.00
2018-02-14T04:40:30.363Z,93.00
2018-02-14T04:42:57.869Z,93.00
2018-02-14T04:45:25.329Z,93.00
2018-02-14T04:47:52.814Z,93.00
2018-02-14T04:50:20.298Z,92.90
2018-02-14T04:52:47.787Z,92.90
2018-02-14T04:55:15.251Z,93.00
2018-02-14T04:57:42.750Z,92.90
2018-02-14T05:00:10.210Z,93.00
2018-02-14T05:02:37.674Z,93.00
2018-02-14T05:05:05.158Z,93.00
2018-02-14T05:07:33.389Z,93.00
2018-02-14T05:10:00.867Z,93.00
2018-02-14T05:12:28.335Z,93.00
2018-02-14T05:14:55.826Z,92.90
2018-02-14T05:17:23.318Z,92.90
2018-02-14T05:19:50.782Z,92.90
2018-02-14T05:22:18.267Z,92.90
2018-02-14T05:24:45.738Z,92.90
2018-02-14T05:27:13.227Z,92.90
2018-02-14T05:29:40.691Z,93.20
2018-02-14T05:32:08.175Z,92.90
2018-02-14T05:34:35.650Z,92.80
2018-02-14T05:37:03.122Z,92.80
2018-02-14T05:39:30.583Z,92.80
2018-02-14T05:41:58.070Z,92.80
2018-02-14T05:44:25.526Z,92.80
2018-02-14T05:46:53.050Z,92.80
2018-02-14T05:49:20.519Z,92.80
2018-02-14T05:51:47.998Z,92.80
2018-02-14T05:54:15.470Z,92.80
2018-02-14T05:56:42.958Z,92.80
2018-02-14T05:59:10.431Z,92.80
2018-02-14T06:01:37.886Z,92.70
2018-02-14T06:04:05.370Z,92.70
2018-02-14T06:06:32.835Z,92.80
2018-02-14T06:09:01.099Z,92.70
2018-02-14T06:11:28.554Z,92.70
2018-02-14T06:13:56.067Z,92.70
2018-02-14T06:16:23.551Z,92.70
2018-02-14T06:18:51.015Z,92.70
2018-02-14T06:21:18.570Z,92.70
2018-02-14T06:23:46.094Z,92.70
2018-02-14T06:26:13.583Z,92.70
2018-02-14T06:28:41.049Z,92.70
2018-02-14T06:31:08.527Z,92.70
2018-02-14T06:33:35.990Z,92.70
2018-02-14T06:36:03.492Z,92.70
2018-02-14T06:38:30.971Z,92.70
2018-02-14T06:40:59.243Z,92.80
2018-02-14T06:43:26.722Z,92.80
2018-02-14T06:45:54.214Z,92.70
2018-02-14T06:48:21.682Z,92.70
2018-02-14T06:50:49.151Z,92.70
2018-02-14T06:53:16.657Z,92.70
2018-02-14T06:55:44.158Z,92.70
2018-02-14T06:58:12.401Z,92.80
2018-02-14T07:00:39.907Z,92.70
2018-02-14T07:03:08.127Z,92.70
2018-02-14T07:05:35.615Z,92.70
2018-02-14T07:08:03.100Z,92.70
2018-02-14T07:10:30.592Z,92.80
2018-02-14T07:12:58.179Z,92.70
2018-02-14T07:15:25.638Z,92.70
2018-02-14T07:17:53.126Z,92.70
2018-02-14T07:20:20.594Z,92.70
2018-02-14T07:22:48.086Z,92.70
2018-02-14T07:25:15.564Z,92.70
2018-02-14T07:27:43.019Z,92.70
2018-02-14T07:30:10.518Z,92.70
2018-02-14T07:32:37.979Z,92.70
2018-02-14T07:35:05.477Z,92.80
2018-02-14T07:37:32.940Z,92.80
2018-02-14T07:40:00.418Z,92.80
2018-02-14T07:42:27.906Z,92.90
2018-02-14T07:44:55.369Z,92.90
2018-02-14T07:47:22.859Z,92.90
2018-02-14T07:49:50.352Z,92.90
2018-02-14T07:52:17.831Z,93.00
2018-02-14T07:54:45.310Z,93.00
2018-02-14T07:57:12.789Z,93.00
2018-02-14T07:59:40.244Z,93.00
2018-02-14T08:02:07.737Z,93.00
2018-02-14T08:04:35.186Z,92.90
2018-02-14T08:07:02.670Z,93.00
2018-02-14T08:09:30.158Z,93.00
2018-02-14T08:11:57.648Z,93.00
2018-02-14T08:14:25.127Z,93.00
2018-02-14T08:16:52.595Z,93.10
2018-02-14T08:19:20.083Z,93.10
2018-02-14T08:21:48.338Z,93.10
2018-02-14T08:24:15.819Z,93.10
2018-02-14T08:26:43.278Z,93.20
2018-02-14T08:29:11.534Z,93.30
2018-02-14T08:31:38.995Z,93.30
2018-02-14T08:34:06.467Z,93.30
2018-02-14T08:36:33.951Z,93.20
2018-02-14T08:39:01.419Z,93.30
2018-02-14T08:41:29.004Z,93.20
2018-02-14T08:43:56.471Z,93.10
2018-02-14T08:46:23.934Z,93.10
2018-02-14T08:48:51.424Z,93.10
2018-02-14T08:51:19.671Z,93.10
2018-02-14T08:53:47.175Z,93.10
2018-02-14T08:56:14.665Z,93.10
2018-02-14T08:58:42.126Z,93.20
2018-02-14T09:01:09.619Z,93.30
2018-02-14T09:03:37.087Z,93.50
2018-02-14T09:06:04.591Z,93.30
2018-02-14T09:08:32.083Z,93.00
2018-02-14T09:10:59.534Z,93.20
2018-02-14T09:13:27.022Z,93.20
2018-02-14T09:15:55.270Z,93.00
2018-02-14T09:18:22.750Z,93.00
2018-02-14T09:20:50.239Z,92.90
2018-02-14T09:23:17.693Z,93.20
2018-02-14T09:25:45.181Z,93.00
2018-02-14T09:28:12.637Z,92.90
2018-02-14T09:30:40.130Z,92.90
2018-02-14T09:33:07.589Z,92.40
2018-02-14T09:35:35.059Z,92.80
2018-02-14T09:38:02.542Z,92.90
2018-02-14T09:40:29.996Z,93.00
2018-02-14T09:43:00.987Z,93.00
2018-02-14T09:45:28.458Z,93.30
2018-02-14T09:47:55.964Z,93.30
2018-02-14T09:50:23.418Z,93.40
2018-02-14T09:52:50.899Z,93.40
2018-02-14T09:55:18.360Z,93.20
2018-02-14T09:57:45.841Z,93.00
2018-02-14T10:00:13.309Z,93.00
2018-02-14T10:02:40.754Z,92.90
2018-02-14T10:05:08.246Z,92.70
2018-02-14T10:07:35.703Z,92.40
2018-02-14T10:10:03.961Z,92.10
2018-02-14T10:12:31.439Z,92.10
2018-02-14T10:14:58.926Z,91.70
2018-02-14T10:17:26.383Z,91.80
2018-02-14T10:19:53.843Z,91.80
2018-02-14T10:22:21.323Z,91.00
2018-02-14T10:24:48.820Z,91.00
2018-02-14T10:27:16.291Z,89.30
2018-02-14T10:29:43.747Z,88.10
2018-02-14T10:32:11.231Z,89.90
2018-02-14T10:34:38.715Z,89.60
2018-02-14T10:37:06.184Z,89.10
2018-02-14T10:39:33.637Z,88.10
2018-02-14T10:42:01.119Z,88.80
2018-02-14T10:44:28.590Z,88.80
2018-02-14T10:46:56.082Z,86.00
2018-02-14T10:49:23.611Z,84.40
2018-02-14T10:51:51.012Z,85.40
2018-02-14T10:54:18.494Z,85.60
2018-02-14T10:56:45.976Z,83.90
2018-02-14T10:59:13.454Z,86.20
2018-02-14T11:01:47.390Z,85.30
2018-02-14T11:04:20.445Z,85.30
2018-02-14T11:06:47.918Z,87.20
2018-02-14T11:09:15.370Z,84.40
2018-02-14T11:11:43.629Z,81.60
2018-02-14T11:14:11.086Z,81.60
2018-02-14T11:16:38.547Z,79.30
2018-02-14T11:19:06.027Z,77.40
2018-02-14T11:21:33.495Z,75.10
2018-02-14T11:24:00.954Z,73.50
2018-02-14T11:26:28.439Z,70.60
2018-02-14T11:28:55.898Z,71.30
2018-02-14T11:31:23.394Z,70.50
2018-02-14T11:33:50.850Z,68.80
2018-02-14T11:36:18.334Z,67.60
2018-02-14T11:38:46.619Z,63.20
2018-02-14T11:41:14.854Z,62.10
2018-02-14T11:43:42.315Z,62.00
2018-02-14T11:46:09.789Z,62.30
2018-02-14T11:48:37.396Z,60.40
2018-02-14T11:51:04.904Z,59.30
2018-02-14T11:53:32.361Z,58.30
2018-02-14T11:55:59.818Z,55.00
2018-02-14T11:58:27.299Z,55.50
2018-02-14T12:00:55.522Z,56.30
2018-02-14T12:03:23.015Z,56.50
2018-02-14T12:05:50.466Z,54.60
2018-02-14T12:08:17.964Z,53.20
2018-02-14T12:10:45.419Z,53.30
2018-02-14T12:13:12.906Z,51.60
2018-02-14T12:15:40.362Z,52.00
2018-02-14T12:18:07.827Z,52.20
2018-02-14T12:20:36.098Z,51.20
2018-02-14T12:23:03.563Z,51.20
2018-02-14T12:25:31.042Z,50.70
2018-02-14T12:27:58.503Z,50.20
2018-02-14T12:30:26.029Z,51.90
2018-02-14T12:32:54.215Z,49.60
2018-02-14T12:35:21.724Z,49.50
2018-02-14T12:37:49.950Z,49.10
2018-02-14T12:40:17.448Z,49.20
2018-02-14T12:42:44.910Z,49.50
2018-02-14T12:45:12.403Z,49.00
2018-02-14T12:47:39.890Z,49.20
2018-02-14T12:50:07.394Z,49.20
2018-02-14T12:52:35.726Z,46.60
2018-02-14T12:55:03.203Z,46.60
2018-02-14T12:57:30.656Z,43.00
2018-02-14T12:59:58.127Z,44.40
2018-02-14T13:02:25.602Z,46.40
2018-02-14T13:04:53.060Z,47.30
2018-02-14T13:07:20.510Z,48.60
2018-02-14T13:09:47.992Z,46.80
2018-02-14T13:12:15.446Z,46.30
2018-02-14T13:14:42.934Z,46.90
2018-02-14T13:17:10.426Z,47.10
2018-02-14T13:19:37.884Z,47.50
2018-02-14T13:22:05.378Z,46.20
2018-02-14T13:24:33.598Z,47.90
2018-02-14T13:27:01.080Z,48.00
2018-02-14T13:29:28.530Z,47.90
2018-02-14T13:31:56.051Z,48.80
2018-02-14T13:34:23.511Z,47.50
2018-02-14T13:36:50.969Z,49.10
2018-02-14T13:39:18.550Z,48.70
2018-02-14T13:41:46.013Z,49.10
2018-02-14T13:44:13.469Z,50.20
2018-02-14T13:46:40.958Z,51.50
2018-02-14T13:49:08.426Z,51.20
2018-02-14T13:51:35.883Z,52.30
2018-02-14T13:54:03.371Z,51.50
2018-02-14T13:56:31.583Z,51.10
2018-02-14T13:58:59.043Z,51.10
2018-02-14T14:01:26.531Z,51.70
2018-02-14T14:03:54.009Z,52.60
2018-02-14T14:06:22.246Z,53.90
2018-02-14T14:08:49.703Z,53.90
2018-02-14T14:11:17.182Z,54.30
2018-02-14T14:13:44.643Z,54.40
2018-02-14T14:16:12.127Z,54.60
2018-02-14T14:18:40.356Z,54.50
2018-02-14T14:21:07.838Z,54.50
2018-02-14T14:23:35.302Z,55.50
2018-02-14T14:26:02.783Z,55.70
2018-02-14T14:28:30.239Z,55.50
2018-02-14T14:30:57.750Z,55.70
2018-02-14T14:33:25.255Z,55.80
2018-02-14T14:35:53.477Z,56.10
2018-02-14T14:38:20.951Z,56.20
2018-02-14T14:40:48.434Z,57.20
2018-02-14T14:43:15.938Z,57.20
2018-02-14T14:45:43.398Z,56.60
2018-02-14T14:48:10.887Z,57.50
2018-02-14T14:50:38.338Z,58.20
2018-02-14T14:53:05.814Z,58.40
2018-02-14T14:55:33.298Z,58.10
2018-02-14T14:58:01.523Z,58.70
2018-02-14T15:00:29.011Z,58.70
2018-02-14T15:02:56.531Z,59.30
2018-02-14T15:05:24.764Z,57.90
2018-02-14T15:07:53.007Z,59.20
2018-02-14T15:10:20.498Z,59.20
2018-02-14T15:12:48.751Z,58.10
2018-02-14T15:15:16.243Z,58.00
2018-02-14T15:17:44.475Z,58.00
2018-02-14T15:20:11.983Z,58.00
2018-02-14T15:22:39.458Z,58.60
2018-02-14T15:25:06.941Z,58.80
2018-02-14T15:27:34.411Z,59.40
2018-02-14T15:30:01.870Z,59.30
2018-02-14T15:32:29.350Z,60.30
2018-02-14T15:34:56.831Z,59.80
2018-02-14T15:37:24.309Z,59.70
2018-02-14T15:39:51.789Z,60.60
2018-02-14T15:42:19.243Z,61.20
2018-02-14T15:44:46.750Z,61.20
2018-02-14T15:47:14.979Z,60.70
2018-02-14T15:49:42.425Z,60.80
2018-02-14T15:52:09.926Z,60.30
2018-02-14T15:54:37.385Z,61.10
2018-02-14T15:57:04.837Z,61.10
2018-02-14T15:59:32.328Z,61.80
2018-02-14T16:02:00.737Z,62.30
2018-02-14T16:04:28.214Z,62.40
2018-02-14T16:06:55.714Z,63.20
2018-02-14T16:09:23.151Z,63.80
2018-02-14T16:11:50.633Z,64.00
2018-02-14T16:14:18.874Z,64.70
2018-02-14T16:16:46.335Z,64.60
2018-02-14T16:19:13.817Z,65.10
2018-02-14T16:21:41.275Z,65.40
2018-02-14T16:24:08.750Z,66.00
2018-02-14T16:26:36.984Z,67.00
2018-02-14T16:29:04.473Z,67.00
2018-02-14T16:31:31.943Z,67.50
2018-02-14T16:33:59.424Z,67.90
2018-02-14T16:36:26.933Z,67.90
2018-02-14T16:38:54.375Z,68.20
2018-02-14T16:41:21.834Z,68.80
2018-02-14T16:43:49.311Z,69.00
2018-02-14T16:46:16.770Z,69.50
2018-02-14T16:48:44.279Z,69.60
2018-02-14T16:51:12.576Z,70.10
2018-02-14T16:53:40.071Z,70.20
2018-02-14T16:56:07.588Z,70.50
2018-02-14T16:58:35.122Z,70.80
2018-02-14T17:01:02.746Z,71.00
2018-02-14T17:03:32.010Z,71.20
2018-02-14T17:05:59.620Z,71.50
2018-02-14T17:08:27.109Z,72.00
2018-02-14T17:10:54.676Z,72.00
2018-02-14T17:13:22.115Z,72.40
2018-02-14T17:15:50.344Z,72.80
2018-02-14T17:18:18.123Z,72.80
2018-02-14T17:20:45.610Z,73.00
2018-02-14T17:23:13.106Z,73.20
2018-02-14T17:25:40.598Z,73.40
2018-02-14T17:28:08.219Z,73.50
2018-02-14T17:30:35.690Z,73.60
2018-02-14T17:33:03.154Z,73.60
2018-02-14T17:35:30.640Z,73.90
2018-02-14T17:37:58.143Z,74.10
2018-02-14T17:40:25.714Z,74.30
2018-02-14T17:42:53.194Z,74.50
2018-02-14T17:45:20.710Z,74.90
2018-02-14T17:50:22.767Z,75.10
2018-02-14T17:52:50.231Z,75.30
2018-02-14T17:55:17.692Z,75.70
2018-02-14T17:57:45.175Z,75.60
2018-02-14T18:00:12.638Z,76.00
2018-02-14T18:02:40.168Z,76.30
2018-02-14T18:05:14.435Z,76.50
2018-02-14T18:07:41.938Z,76.60
2018-02-14T18:10:09.419Z,76.60
2018-02-14T18:12:37.650Z,76.90
2018-02-14T18:15:05.149Z,77.00
2018-02-14T18:17:33.366Z,77.40
2018-02-14T18:20:00.853Z,77.00
2018-02-14T18:22:28.311Z,77.10
2018-02-14T18:24:55.799Z,77.30
2018-02-14T18:27:24.039Z,77.70
2018-02-14T18:29:51.530Z,77.70
2018-02-14T18:32:19.762Z,77.90
2018-02-14T18:34:47.228Z,77.80
2018-02-14T18:37:14.714Z,78.00
2018-02-14T18:39:42.226Z,78.10
2018-02-14T18:42:09.694Z,78.10
2018-02-14T18:44:37.163Z,78.10
2018-02-14T18:47:04.647Z,78.40
2018-02-14T18:49:32.131Z,78.50
2018-02-14T18:51:59.595Z,78.60
2018-02-14T18:54:27.099Z,78.70
2018-02-14T18:56:54.554Z,78.80
2018-02-14T18:59:22.055Z,79.00
2018-02-14T19:01:50.278Z,79.20
2018-02-14T19:04:18.091Z,79.10
2018-02-14T19:06:45.550Z,79.20
2018-02-14T19:09:13.030Z,79.40
2018-02-14T19:11:40.514Z,79.50
2018-02-14T19:14:07.987Z,79.40
2018-02-14T19:16:35.483Z,79.40
2018-02-14T19:19:02.944Z,79.40
2018-02-14T19:21:30.449Z,79.60
2018-02-14T19:23:57.917Z,79.60
2018-02-14T19:26:25.371Z,80.50
2018-02-14T19:28:52.851Z,79.70
2018-02-14T19:31:20.321Z,79.70
2018-02-14T19:33:47.807Z,79.80
2018-02-14T19:36:15.291Z,79.70
2018-02-14T19:38:42.759Z,79.50
2018-02-14T19:41:10.234Z,79.60
2018-02-14T19:43:37.710Z,79.50
2018-02-14T19:46:05.167Z,79.60
2018-02-14T19:48:32.646Z,79.70
2018-02-14T19:51:00.870Z,79.80
2018-02-14T19:53:28.354Z,79.80
2018-02-14T19:55:55.857Z,79.70
2018-02-14T19:58:24.080Z,80.20
2018-02-14T20:00:51.566Z,80.20
2018-02-14T20:03:19.171Z,80.20
2018-02-14T20:05:46.677Z,80.20
2018-02-14T20:08:14.137Z,80.20
2018-02-14T20:10:41.603Z,80.20
2018-02-14T20:13:09.082Z,80.20
2018-02-14T20:15:37.302Z,80.30
2018-02-14T20:18:06.064Z,80.20
2018-02-14T20:20:33.552Z,80.30
2018-02-14T20:23:01.046Z,80.20
2018-02-14T20:25:28.517Z,80.20
2018-02-14T20:27:55.995Z,80.20
2018-02-14T20:30:23.487Z,80.30
2018-02-14T20:32:50.951Z,80.20
2018-02-14T20:35:18.425Z,80.60
2018-02-14T20:37:45.883Z,80.50
2018-02-14T20:40:13.366Z,80.70
2018-02-14T20:42:41.592Z,80.80
2018-02-14T20:45:09.111Z,80.80
2018-02-14T20:47:36.579Z,80.80
2018-02-14T20:50:04.055Z,81.10
2018-02-14T20:52:31.554Z,81.10
2018-02-14T20:54:59.054Z,81.00
2018-02-14T20:57:26.552Z,81.10
2018-02-14T20:59:54.016Z,80.90
2018-02-14T21:02:21.499Z,81.00
2018-02-14T21:04:48.958Z,81.00
2018-02-14T21:07:16.443Z,81.00
2018-02-14T21:09:43.949Z,81.20
2018-02-14T21:12:11.417Z,80.90
2018-02-14T21:14:38.880Z,80.90
2018-02-14T21:17:06.358Z,80.80
2018-02-14T21:19:34.623Z,81.00
2018-02-14T21:22:02.079Z,80.90
2018-02-14T21:24:29.543Z,80.80
2018-02-14T21:26:57.044Z,81.00
2018-02-14T21:29:24.502Z,80.80
2018-02-14T21:31:51.972Z,80.80
2018-02-14T21:34:19.452Z,80.60
2018-02-14T21:36:46.938Z,80.40
2018-02-14T21:39:14.398Z,80.20
2018-02-14T21:41:41.886Z,80.10
2018-02-14T21:44:09.410Z,80.80
2018-02-14T21:46:36.867Z,80.30
2018-02-14T21:49:04.350Z,80.30
2018-02-14T21:51:33.789Z,80.20
2018-02-14T21:54:01.281Z,80.30
2018-02-14T21:56:28.751Z,80.30
2018-02-14T21:58:56.240Z,80.30
2018-02-14T22:01:23.738Z,80.40
2018-02-14T22:03:51.231Z,80.50
2018-02-14T22:06:18.695Z,80.50
2018-02-14T22:08:46.918Z,80.50
2018-02-14T22:11:14.402Z,80.50
2018-02-14T22:13:41.866Z,80.60
2018-02-14T22:16:09.355Z,80.60
2018-02-14T22:18:37.593Z,80.50
2018-02-14T22:21:05.099Z,80.50
2018-02-14T22:23:32.558Z,80.30
2018-02-14T22:26:00.019Z,80.30
2018-02-14T22:28:27.494Z,80.30
2018-02-14T22:30:54.955Z,80.40
2018-02-14T22:33:23.205Z,80.40
2018-02-14T22:35:50.662Z,80.40
2018-02-14T22:38:18.914Z,80.40
2018-02-14T22:40:46.399Z,80.40
2018-02-14T22:43:13.872Z,80.30
2018-02-14T22:45:41.336Z,80.30
2018-02-14T22:48:08.824Z,80.20
2018-02-14T22:50:36.279Z,80.10
2018-02-14T22:53:03.774Z,80.10
2018-02-14T22:55:31.238Z,79.80
2018-02-14T22:57:59.479Z,79.80
2018-02-14T23:00:28.754Z,79.80
2018-02-14T23:02:56.214Z,80.10
2018-02-14T23:05:23.694Z,80.00
2018-02-14T23:07:51.151Z,79.90
2018-02-14T23:10:18.639Z,80.00
2018-02-14T23:12:46.102Z,80.00
2018-02-14T23:15:13.583Z,80.00
2018-02-14T23:17:41.042Z,80.00
2018-02-14T23:20:08.523Z,80.10
2018-02-14T23:22:36.007Z,80.30
2018-02-14T23:25:03.502Z,80.80
2018-02-14T23:27:31.764Z,80.40
2018-02-14T23:29:59.223Z,80.20
2018-02-14T23:32:26.703Z,80.10
2018-02-14T23:34:54.162Z,80.10
2018-02-14T23:37:21.651Z,79.80
2018-02-14T23:39:49.106Z,79.90
2018-02-14T23:42:16.674Z,79.40
2018-02-14T23:44:44.131Z,79.50
2018-02-14T23:47:11.583Z,79.30
2018-02-14T23:49:39.062Z,79.30
2018-02-14T23:52:06.519Z,79.30
2018-02-14T23:54:34.006Z,79.30
2018-02-14T23:57:01.463Z,79.20
2018-02-14T23:59:28.914Z,79.10
